createdAt,value
2017-10-26T00:00:32.830Z,91.08
2017-10-26T00:03:01.855Z,91.26
2017-10-26T00:05:30.118Z,91.20
2017-10-26T00:07:58.378Z,91.23
2017-10-26T00:10:27.416Z,91.50
2017-10-26T00:12:55.681Z,91.26
2017-10-26T00:15:23.930Z,91.13
2017-10-26T00:17:52.953Z,91.24
2017-10-26T00:20:21.213Z,91.25
2017-10-26T00:22:49.460Z,91.57
2017-10-26T00:25:18.499Z,91.68
2017-10-26T00:27:46.752Z,91.63
2017-10-26T00:30:15.017Z,91.66
2017-10-26T00:32:44.043Z,91.76
2017-10-26T00:35:12.293Z,91.79
2017-10-26T00:37:40.550Z,91.64
2017-10-26T00:40:09.562Z,91.58
2017-10-26T00:42:37.827Z,91.76
2017-10-26T00:45:06.839Z,91.53
2017-10-26T00:47:35.094Z,91.29
2017-10-26T00:50:04.116Z,91.10
2017-10-26T00:52:32.371Z,91.18
2017-10-26T00:55:01.387Z,91.32
2017-10-26T00:57:29.652Z,91.35
2017-10-26T00:59:57.890Z,91.54
2017-10-26T01:02:26.142Z,91.80
2017-10-26T01:04:54.396Z,91.95
2017-10-26T01:07:22.654Z,91.98
2017-10-26T01:09:50.904Z,92.03
2017-10-26T01:12:19.932Z,92.28
2017-10-26T01:14:48.187Z,92.37
2017-10-26T01:17:16.439Z,92.24
2017-10-26T01:19:45.459Z,92.01
2017-10-26T01:22:14.483Z,91.99
2017-10-26T01:24:42.742Z,91.93
2017-10-26T01:27:11.002Z,91.90
2017-10-26T01:29:39.260Z,91.87
2017-10-26T01:32:07.504Z,91.96
2017-10-26T01:34:35.762Z,91.99
2017-10-26T01:37:04.020Z,92.25
2017-10-26T01:39:32.266Z,91.93
2017-10-26T01:42:01.278Z,91.41
2017-10-26T01:44:29.535Z,92.28
2017-10-26T01:46:58.587Z,92.45
2017-10-26T01:49:26.845Z,92.69
2017-10-26T01:51:55.082Z,92.56
2017-10-26T01:54:24.108Z,92.67
2017-10-26T01:56:52.352Z,92.33
2017-10-26T01:59:20.612Z,92.16
2017-10-26T02:01:49.648Z,92.43
2017-10-26T02:04:18.647Z,92.14
2017-10-26T02:06:46.902Z,91.93
2017-10-26T02:09:15.169Z,91.49
2017-10-26T02:11:44.185Z,90.92
2017-10-26T02:14:12.447Z,90.94
2017-10-26T02:16:40.697Z,90.70
2017-10-26T02:19:09.722Z,90.80
2017-10-26T02:21:37.983Z,90.61
2017-10-26T02:24:06.246Z,90.88
2017-10-26T02:26:35.265Z,91.01
2017-10-26T02:32:11.956Z,90.85
2017-10-26T02:34:40.218Z,90.87
2017-10-26T02:37:09.231Z,90.85
2017-10-26T02:39:37.492Z,91.68
2017-10-26T02:42:05.742Z,91.84
2017-10-26T02:44:34.767Z,91.77
2017-10-26T02:47:03.013Z,91.87
2017-10-26T02:49:32.040Z,91.85
2017-10-26T02:52:00.286Z,91.71
2017-10-26T02:54:29.310Z,91.79
2017-10-26T02:56:57.553Z,91.63
2017-10-26T02:59:26.575Z,91.71
2017-10-26T03:01:54.826Z,92.05
2017-10-26T03:04:23.866Z,91.81
2017-10-26T03:06:52.115Z,91.53
2017-10-26T03:09:20.366Z,91.20
2017-10-26T03:11:49.386Z,90.97
2017-10-26T03:14:17.622Z,90.78
2017-10-26T03:16:45.878Z,91.27
2017-10-26T03:19:14.122Z,91.22
2017-10-26T03:21:42.377Z,91.58
2017-10-26T03:24:10.624Z,92.04
2017-10-26T03:26:38.870Z,91.90
2017-10-26T03:29:07.115Z,91.21
2017-10-26T03:31:35.370Z,91.09
2017-10-26T03:34:04.387Z,90.51
2017-10-26T03:36:32.637Z,90.55
2017-10-26T03:39:01.647Z,90.58
2017-10-26T03:41:29.904Z,91.19
2017-10-26T03:43:58.915Z,91.38
2017-10-26T03:46:27.163Z,92.06
2017-10-26T03:48:56.187Z,92.10
2017-10-26T03:51:24.436Z,91.98
2017-10-26T03:53:53.458Z,91.04
2017-10-26T03:56:21.714Z,91.42
2017-10-26T03:58:50.725Z,91.28
2017-10-26T04:01:18.987Z,91.38
2017-10-26T04:03:47.991Z,91.53
2017-10-26T04:06:16.241Z,91.61
2017-10-26T04:08:45.258Z,91.69
2017-10-26T04:11:13.512Z,91.73
2017-10-26T04:13:42.528Z,91.68
2017-10-26T04:16:10.808Z,91.95
2017-10-26T04:18:39.045Z,91.94
2017-10-26T04:21:07.294Z,92.10
2017-10-26T04:23:35.559Z,92.04
2017-10-26T04:26:03.802Z,92.17
2017-10-26T04:28:32.062Z,92.19
2017-10-26T04:31:01.074Z,92.49
2017-10-26T04:33:29.325Z,92.71
2017-10-26T04:35:58.338Z,92.80
2017-10-26T04:38:26.595Z,92.96
2017-10-26T04:40:55.606Z,92.81
2017-10-26T04:43:23.861Z,92.56
2017-10-26T04:45:52.872Z,92.50
2017-10-26T04:48:21.133Z,92.75
2017-10-26T04:50:50.145Z,92.59
2017-10-26T04:53:18.399Z,92.05
2017-10-26T04:55:47.415Z,92.19
2017-10-26T04:58:15.674Z,92.27
2017-10-26T05:00:44.690Z,92.73
2017-10-26T05:03:12.941Z,92.72
2017-10-26T05:05:41.958Z,92.82
2017-10-26T05:08:10.215Z,92.40
2017-10-26T05:10:39.222Z,92.39
2017-10-26T05:13:07.479Z,92.31
2017-10-26T05:15:36.487Z,92.52
2017-10-26T05:18:04.756Z,92.63
2017-10-26T05:20:33.761Z,92.87
2017-10-26T05:23:02.026Z,92.19
2017-10-26T05:25:30.271Z,92.46
2017-10-26T05:27:58.547Z,92.01
2017-10-26T05:30:26.785Z,92.20
2017-10-26T05:32:55.027Z,92.24
2017-10-26T05:35:23.282Z,92.62
2017-10-26T05:37:52.298Z,92.73
2017-10-26T05:40:20.564Z,92.69
2017-10-26T05:42:49.574Z,92.69
2017-10-26T05:45:17.835Z,92.39
2017-10-26T05:47:46.084Z,92.24
2017-10-26T05:50:14.339Z,92.49
2017-10-26T05:52:42.585Z,92.81
2017-10-26T05:55:10.830Z,92.60
2017-10-26T05:57:39.834Z,92.53
2017-10-26T06:00:08.090Z,92.46
2017-10-26T06:02:36.326Z,92.33
2017-10-26T06:05:05.339Z,92.42
2017-10-26T06:07:33.582Z,92.49
2017-10-26T06:10:01.831Z,92.46
2017-10-26T06:12:30.083Z,92.39
2017-10-26T06:14:59.110Z,92.44
2017-10-26T06:17:27.354Z,92.52
2017-10-26T06:19:56.375Z,92.70
2017-10-26T06:22:24.615Z,92.57
2017-10-26T06:24:52.867Z,92.52
2017-10-26T06:27:21.111Z,92.30
2017-10-26T06:29:49.376Z,92.16
2017-10-26T06:32:17.618Z,91.98
2017-10-26T06:34:46.634Z,91.80
2017-10-26T06:37:14.885Z,91.88
2017-10-26T06:39:43.142Z,91.58
2017-10-26T06:42:11.395Z,91.61
2017-10-26T06:44:39.635Z,91.62
2017-10-26T06:47:07.886Z,91.65
2017-10-26T06:49:36.903Z,91.53
2017-10-26T06:52:05.151Z,91.46
2017-10-26T06:54:33.398Z,91.14
2017-10-26T06:57:01.654Z,90.91
2017-10-26T06:59:29.898Z,90.81
2017-10-26T07:01:58.913Z,90.81
2017-10-26T07:04:27.157Z,90.73
2017-10-26T07:06:56.183Z,91.52
2017-10-26T07:09:24.433Z,91.37
2017-10-26T07:11:53.455Z,91.07
2017-10-26T07:14:21.701Z,90.98
2017-10-26T07:16:50.728Z,90.58
2017-10-26T07:19:18.969Z,90.12
2017-10-26T07:21:47.994Z,89.83
2017-10-26T07:24:16.232Z,89.85
2017-10-26T07:26:45.263Z,90.26
2017-10-26T07:29:13.505Z,90.71
2017-10-26T07:31:42.564Z,90.61
2017-10-26T07:34:10.792Z,90.13
2017-10-26T07:36:39.055Z,89.83
2017-10-26T07:39:08.066Z,89.22
2017-10-26T07:41:36.317Z,88.57
2017-10-26T07:44:05.330Z,88.59
2017-10-26T07:46:33.590Z,88.02
2017-10-26T07:49:01.831Z,87.82
2017-10-26T07:51:30.070Z,87.49
2017-10-26T07:53:58.333Z,87.42
2017-10-26T07:56:26.569Z,88.45
2017-10-26T07:58:55.590Z,89.67
2017-10-26T08:01:23.838Z,90.35
2017-10-26T08:03:52.087Z,88.92
2017-10-26T08:06:20.325Z,87.98
2017-10-26T08:08:48.587Z,87.91
2017-10-26T08:11:16.828Z,88.55
2017-10-26T08:13:45.090Z,88.23
2017-10-26T08:16:13.337Z,88.06
2017-10-26T08:18:41.586Z,87.61
2017-10-26T08:21:10.603Z,89.40
2017-10-26T08:23:38.841Z,88.92
2017-10-26T08:26:07.854Z,89.89
2017-10-26T08:28:36.111Z,90.06
2017-10-26T08:31:05.132Z,89.46
2017-10-26T08:33:33.396Z,88.92
2017-10-26T08:36:01.640Z,89.46
2017-10-26T08:38:29.897Z,90.60
2017-10-26T08:40:58.150Z,88.69
2017-10-26T08:43:26.506Z,87.54
2017-10-26T08:45:54.762Z,87.55
2017-10-26T08:48:23.783Z,86.51
2017-10-26T08:50:52.040Z,86.55
2017-10-26T08:53:21.146Z,85.62
2017-10-26T08:55:49.404Z,85.08
2017-10-26T08:58:18.429Z,85.41
2017-10-26T09:00:46.686Z,85.06
2017-10-26T09:03:14.937Z,84.30
2017-10-26T09:05:43.970Z,84.15
2017-10-26T09:08:12.228Z,83.62
2017-10-26T09:10:40.496Z,83.15
2017-10-26T09:13:08.750Z,82.95
2017-10-26T09:15:37.010Z,82.64
2017-10-26T09:18:05.263Z,84.58
2017-10-26T09:20:34.294Z,84.03
2017-10-26T09:23:02.553Z,83.99
2017-10-26T09:25:30.826Z,85.21
2017-10-26T09:27:59.091Z,84.84
2017-10-26T09:30:28.123Z,83.93
2017-10-26T09:33:02.010Z,83.00
2017-10-26T09:35:30.283Z,82.11
2017-10-26T09:37:58.535Z,82.32
2017-10-26T09:40:27.571Z,82.38
2017-10-26T09:42:55.815Z,81.24
2017-10-26T09:45:24.075Z,80.46
2017-10-26T09:47:53.093Z,79.83
2017-10-26T09:50:21.362Z,80.43
2017-10-26T09:52:49.610Z,79.94
2017-10-26T09:55:17.867Z,79.57
2017-10-26T09:57:46.126Z,78.88
2017-10-26T10:00:14.384Z,79.03
2017-10-26T10:02:42.638Z,78.92
2017-10-26T10:05:10.893Z,78.60
2017-10-26T10:07:39.906Z,77.47
2017-10-26T10:10:08.166Z,76.54
2017-10-26T10:12:37.181Z,76.89
2017-10-26T10:15:05.449Z,78.71
2017-10-26T10:17:33.702Z,77.98
2017-10-26T10:20:02.732Z,78.81
2017-10-26T10:22:30.983Z,77.73
2017-10-26T10:24:59.998Z,77.60
2017-10-26T10:27:28.257Z,76.30
2017-10-26T10:29:57.263Z,74.81
2017-10-26T10:32:25.522Z,75.33
2017-10-26T10:34:54.537Z,74.07
2017-10-26T10:37:22.797Z,74.48
2017-10-26T10:39:51.813Z,74.99
2017-10-26T10:42:20.071Z,66.07
2017-10-26T10:44:48.321Z,63.69
2017-10-26T10:47:16.585Z,61.29
2017-10-26T10:49:44.834Z,61.98
2017-10-26T10:52:13.089Z,61.42
2017-10-26T10:54:41.339Z,65.14
2017-10-26T10:57:10.367Z,65.13
2017-10-26T10:59:44.217Z,68.72
2017-10-26T11:02:12.479Z,64.05
2017-10-26T11:04:40.722Z,63.43
2017-10-26T11:07:08.992Z,64.40
2017-10-26T11:09:37.234Z,60.77
2017-10-26T11:12:06.256Z,59.37
2017-10-26T11:14:34.503Z,60.54
2017-10-26T11:17:03.527Z,59.51
2017-10-26T11:19:31.787Z,59.55
2017-10-26T11:22:00.038Z,61.17
2017-10-26T11:24:29.058Z,60.04
2017-10-26T11:26:57.321Z,62.65
2017-10-26T11:29:26.338Z,61.05
2017-10-26T11:31:54.607Z,62.87
2017-10-26T11:34:22.859Z,65.86
2017-10-26T11:36:51.936Z,68.65
2017-10-26T11:39:20.188Z,67.48
2017-10-26T11:41:48.447Z,64.80
2017-10-26T11:44:16.706Z,66.11
2017-10-26T11:46:44.965Z,64.78
2017-10-26T11:49:13.985Z,67.17
2017-10-26T11:51:42.239Z,68.85
2017-10-26T11:54:10.494Z,69.40
2017-10-26T11:56:39.514Z,69.78
2017-10-26T11:59:07.765Z,69.19
2017-10-26T12:01:36.782Z,70.31
2017-10-26T12:04:05.042Z,70.67
2017-10-26T12:06:34.052Z,62.08
2017-10-26T12:09:02.302Z,64.58
2017-10-26T12:11:31.324Z,59.12
2017-10-26T12:13:59.574Z,62.43
2017-10-26T12:16:28.588Z,57.78
2017-10-26T12:18:56.847Z,62.96
2017-10-26T12:21:25.873Z,65.13
2017-10-26T12:23:54.126Z,66.46
2017-10-26T12:26:23.128Z,60.83
2017-10-26T12:28:51.378Z,58.04
2017-10-26T12:31:20.386Z,53.81
2017-10-26T12:33:48.643Z,52.78
2017-10-26T12:36:17.649Z,54.76
2017-10-26T12:38:46.666Z,57.30
2017-10-26T12:41:14.908Z,51.85
2017-10-26T12:43:43.949Z,59.28
2017-10-26T12:46:12.193Z,62.20
2017-10-26T12:48:40.441Z,58.45
2017-10-26T12:51:08.714Z,62.03
2017-10-26T12:53:36.937Z,63.01
2017-10-26T12:56:05.190Z,59.51
2017-10-26T12:58:34.208Z,60.92
2017-10-26T13:01:02.455Z,64.26
2017-10-26T13:03:31.462Z,62.09
2017-10-26T13:05:59.721Z,63.83
2017-10-26T13:08:28.719Z,62.80
2017-10-26T13:10:57.731Z,64.22
2017-10-26T13:13:25.976Z,58.42
2017-10-26T13:15:54.990Z,57.67
2017-10-26T13:18:23.233Z,57.16
2017-10-26T13:20:51.478Z,59.02
2017-10-26T13:23:19.724Z,62.99
2017-10-26T13:25:47.979Z,62.85
2017-10-26T13:28:16.990Z,60.37
2017-10-26T13:30:45.243Z,62.09
2017-10-26T13:33:14.245Z,62.41
2017-10-26T13:35:42.494Z,61.89
2017-10-26T13:38:10.737Z,63.69
2017-10-26T13:40:38.992Z,63.23
2017-10-26T13:43:07.234Z,64.36
2017-10-26T13:45:36.246Z,64.55
2017-10-26T13:48:04.481Z,65.67
2017-10-26T13:50:32.741Z,66.50
2017-10-26T13:53:00.983Z,67.10
2017-10-26T13:55:29.255Z,67.53
2017-10-26T13:57:57.508Z,68.29
2017-10-26T14:00:26.515Z,68.60
2017-10-26T14:02:54.776Z,68.92
2017-10-26T14:05:23.792Z,68.72
2017-10-26T14:07:52.045Z,67.85
2017-10-26T14:10:21.058Z,68.29
2017-10-26T14:12:49.319Z,67.89
2017-10-26T14:15:17.562Z,67.24
2017-10-26T14:17:45.814Z,68.17
2017-10-26T14:20:14.059Z,68.31
2017-10-26T14:22:42.485Z,67.51
2017-10-26T14:25:10.733Z,67.57
2017-10-26T14:27:38.979Z,66.98
2017-10-26T14:30:07.231Z,67.38
2017-10-26T14:32:36.233Z,67.92
2017-10-26T14:35:05.251Z,68.36
2017-10-26T14:37:33.491Z,68.41
2017-10-26T14:40:02.508Z,69.39
2017-10-26T14:42:30.751Z,69.16
2017-10-26T14:44:58.998Z,69.12
2017-10-26T14:47:27.241Z,68.92
2017-10-26T14:49:55.491Z,68.81
2017-10-26T14:52:24.494Z,69.76
2017-10-26T14:54:53.513Z,69.35
2017-10-26T14:57:21.766Z,69.42
2017-10-26T14:59:50.019Z,68.93
2017-10-26T15:02:18.405Z,68.76
2017-10-26T15:04:47.434Z,69.34
2017-10-26T15:07:15.675Z,69.68
2017-10-26T15:09:44.682Z,70.50
2017-10-26T15:12:12.921Z,70.68
2017-10-26T15:14:41.174Z,70.87
2017-10-26T15:17:09.417Z,72.13
2017-10-26T15:19:37.662Z,70.68
2017-10-26T15:22:06.675Z,70.62
2017-10-26T15:24:34.922Z,70.48
2017-10-26T15:27:03.166Z,73.03
2017-10-26T15:29:31.418Z,70.57
2017-10-26T15:31:59.669Z,69.83
2017-10-26T15:34:28.677Z,69.83
2017-10-26T15:36:56.926Z,70.17
2017-10-26T15:39:25.175Z,70.38
2017-10-26T15:41:53.419Z,70.63
2017-10-26T15:44:21.668Z,71.43
2017-10-26T15:46:49.914Z,71.42
2017-10-26T15:49:18.166Z,72.46
2017-10-26T15:51:46.414Z,71.99
2017-10-26T15:54:14.666Z,72.26
2017-10-26T15:56:42.917Z,73.23
2017-10-26T15:59:11.172Z,73.20
2017-10-26T16:01:39.416Z,73.26
2017-10-26T16:04:07.674Z,73.45
2017-10-26T16:06:36.681Z,73.75
2017-10-26T16:09:04.937Z,73.94
2017-10-26T16:11:33.941Z,74.95
2017-10-26T16:14:02.191Z,75.10
2017-10-26T16:16:31.202Z,75.44
2017-10-26T16:18:59.449Z,75.27
2017-10-26T16:21:28.465Z,75.53
2017-10-26T16:23:56.955Z,75.55
2017-10-26T16:26:25.186Z,75.56
2017-10-26T16:28:53.437Z,74.85
2017-10-26T16:31:21.687Z,74.81
2017-10-26T16:33:49.935Z,75.25
2017-10-26T16:36:18.942Z,75.04
2017-10-26T16:38:47.190Z,75.22
2017-10-26T16:41:15.442Z,75.56
2017-10-26T16:43:43.697Z,75.94
2017-10-26T16:46:11.937Z,76.37
2017-10-26T16:48:40.197Z,76.61
2017-10-26T16:51:09.206Z,76.95
2017-10-26T16:53:37.457Z,77.26
2017-10-26T16:56:05.706Z,77.24
2017-10-26T16:58:34.734Z,77.46
2017-10-26T17:01:03.747Z,77.48
2017-10-26T17:03:32.779Z,77.73
2017-10-26T17:06:01.017Z,77.67
2017-10-26T17:08:29.296Z,77.69
2017-10-26T17:10:57.534Z,77.74
2017-10-26T17:13:25.775Z,77.76
2017-10-26T17:15:54.034Z,78.13
2017-10-26T17:18:22.286Z,78.35
2017-10-26T17:20:51.308Z,78.41
2017-10-26T17:23:19.546Z,78.40
2017-10-26T17:25:48.572Z,78.02
2017-10-26T17:28:16.819Z,78.11
2017-10-26T17:30:45.835Z,78.79
2017-10-26T17:33:14.083Z,77.93
2017-10-26T17:35:43.102Z,77.89
2017-10-26T17:38:11.356Z,77.55
2017-10-26T17:40:40.370Z,77.71
2017-10-26T17:43:08.622Z,77.46
2017-10-26T17:45:37.636Z,77.99
2017-10-26T17:48:05.881Z,77.72
2017-10-26T17:50:34.901Z,78.05
2017-10-26T17:53:03.145Z,77.43
2017-10-26T17:55:31.399Z,77.61
2017-10-26T17:57:59.647Z,77.86
2017-10-26T18:00:27.894Z,77.75
2017-10-26T18:02:56.906Z,77.81
2017-10-26T18:05:25.161Z,77.73
2017-10-26T18:07:54.173Z,77.77
2017-10-26T18:10:22.434Z,78.01
2017-10-26T18:12:50.681Z,77.54
2017-10-26T18:15:18.947Z,78.22
2017-10-26T18:17:47.204Z,77.87
2017-10-26T18:20:15.447Z,77.66
2017-10-26T18:22:43.694Z,77.83
2017-10-26T18:25:12.713Z,77.62
2017-10-26T18:27:40.954Z,77.49
2017-10-26T18:30:09.214Z,77.69
2017-10-26T18:32:37.468Z,77.53
2017-10-26T18:35:05.733Z,77.96
2017-10-26T18:37:33.978Z,78.14
2017-10-26T18:40:02.239Z,77.73
2017-10-26T18:42:30.483Z,77.65
2017-10-26T18:44:58.742Z,77.65
2017-10-26T18:47:26.995Z,77.69
2017-10-26T18:49:55.249Z,77.71
2017-10-26T18:52:24.276Z,77.99
2017-10-26T18:54:52.521Z,78.09
2017-10-26T18:57:21.553Z,78.22
2017-10-26T18:59:49.804Z,78.46
2017-10-26T19:02:18.054Z,78.88
2017-10-26T19:04:47.093Z,79.44
2017-10-26T19:07:15.331Z,79.37
2017-10-26T19:09:44.347Z,79.68
2017-10-26T19:12:12.604Z,79.96
2017-10-26T19:14:41.620Z,80.26
2017-10-26T19:17:09.864Z,80.12
2017-10-26T19:19:38.876Z,80.34
2017-10-26T19:22:07.126Z,80.20
2017-10-26T19:24:36.142Z,79.81
2017-10-26T19:27:04.395Z,79.49
2017-10-26T19:29:33.406Z,79.72
2017-10-26T19:32:01.653Z,80.04
2017-10-26T19:34:29.913Z,79.61
2017-10-26T19:36:58.174Z,79.92
2017-10-26T19:39:26.428Z,79.92
2017-10-26T19:41:54.674Z,80.28
2017-10-26T19:44:25.431Z,79.91
2017-10-26T19:46:53.689Z,80.14
2017-10-26T19:49:22.709Z,80.05
2017-10-26T19:51:50.963Z,80.30
2017-10-26T19:54:19.226Z,79.99
2017-10-26T19:56:48.261Z,80.26
2017-10-26T19:59:16.506Z,80.34
2017-10-26T20:01:44.766Z,80.30
2017-10-26T20:04:13.788Z,79.69
2017-10-26T20:06:42.046Z,80.41
2017-10-26T20:09:11.063Z,79.80
2017-10-26T20:11:39.321Z,80.02
2017-10-26T20:14:07.570Z,79.92
2017-10-26T20:16:35.826Z,79.77
2017-10-26T20:19:04.084Z,79.83
2017-10-26T20:21:32.343Z,79.94
2017-10-26T20:24:00.621Z,80.25
2017-10-26T20:26:28.903Z,80.33
2017-10-26T20:28:57.191Z,80.29
2017-10-26T20:31:25.477Z,80.27
2017-10-26T20:33:53.727Z,80.91
2017-10-26T20:36:36.858Z,80.93
2017-10-26T20:39:05.122Z,81.09
2017-10-26T20:41:33.411Z,81.45
2017-10-26T20:44:01.683Z,80.89
2017-10-26T20:46:30.002Z,80.87
2017-10-26T20:48:58.304Z,81.02
2017-10-26T20:51:32.655Z,80.33
2017-10-26T20:54:06.183Z,80.49
2017-10-26T20:56:40.245Z,80.41
2017-10-26T20:59:14.010Z,80.44
2017-10-26T21:01:47.791Z,80.64
2017-10-26T21:04:21.498Z,80.78
2017-10-26T21:06:49.760Z,80.87
2017-10-26T21:09:23.626Z,80.85
2017-10-26T21:11:57.391Z,80.70
2017-10-26T21:14:28.486Z,81.03
2017-10-26T21:16:56.754Z,80.91
2017-10-26T21:19:25.766Z,81.06
2017-10-26T21:21:54.047Z,81.00
2017-10-26T21:24:22.303Z,81.28
2017-10-26T21:26:50.559Z,81.12
2017-10-26T21:29:19.585Z,81.42
2017-10-26T21:31:47.837Z,81.76
2017-10-26T21:34:16.099Z,81.87
2017-10-26T21:36:45.122Z,82.36
2017-10-26T21:39:13.366Z,82.54
2017-10-26T21:41:42.390Z,82.23
2017-10-26T21:44:10.648Z,82.22
2017-10-26T21:46:38.905Z,82.42
2017-10-26T21:49:07.921Z,82.80
2017-10-26T21:51:36.190Z,82.11
2017-10-26T21:54:05.202Z,82.07
2017-10-26T21:59:01.008Z,81.56
2017-10-26T22:01:30.030Z,81.47
2017-10-26T22:03:58.306Z,81.61
2017-10-26T22:06:26.558Z,81.50
2017-10-26T22:08:55.580Z,81.65
2017-10-26T22:11:23.838Z,81.55
2017-10-26T22:13:52.091Z,81.83
2017-10-26T22:16:21.118Z,81.81
2017-10-26T22:18:49.370Z,81.87
2017-10-26T22:21:18.388Z,82.16
2017-10-26T22:23:46.662Z,81.94
2017-10-26T22:26:14.927Z,82.11
2017-10-26T22:28:43.180Z,82.12
2017-10-26T22:31:12.197Z,82.04
2017-10-26T22:33:40.450Z,82.72
2017-10-26T22:36:09.479Z,82.77
2017-10-26T22:38:37.733Z,83.41
2017-10-26T22:41:06.712Z,83.17
2017-10-26T22:43:35.722Z,83.75
2017-10-26T22:46:03.982Z,83.61
2017-10-26T22:48:33.010Z,83.77
2017-10-26T22:51:01.274Z,83.56
2017-10-26T22:53:29.525Z,83.68
2017-10-26T22:55:58.547Z,84.06
2017-10-26T22:58:26.804Z,83.94
2017-10-26T23:00:55.823Z,84.14
2017-10-26T23:03:24.088Z,84.19
2017-10-26T23:05:52.339Z,84.30
2017-10-26T23:08:21.355Z,84.46
2017-10-26T23:10:49.615Z,84.81
2017-10-26T23:13:18.643Z,85.08
2017-10-26T23:15:46.904Z,84.99
2017-10-26T23:18:15.158Z,85.48
2017-10-26T23:20:44.187Z,85.67
2017-10-26T23:23:12.431Z,85.89
2017-10-26T23:25:41.450Z,86.13
2017-10-26T23:28:09.707Z,86.08
2017-10-26T23:30:38.722Z,86.18
2017-10-26T23:33:06.992Z,86.40
2017-10-26T23:35:35.247Z,86.51
2017-10-26T23:38:04.266Z,86.24
2017-10-26T23:40:32.517Z,86.47
2017-10-26T23:43:00.779Z,86.50
2017-10-26T23:45:29.807Z,86.57
2017-10-26T23:47:58.063Z,86.72
2017-10-26T23:50:26.317Z,86.55
2017-10-26T23:52:54.574Z,86.57
2017-10-26T23:55:22.828Z,86.53
2017-10-26T23:57:51.096Z,86.51
